Time;durP1;ratioP1;P1;durP2;ratioP2;P2;SDS_P1;SDS_P2;PMS_P1;PMS_P2;Temp;Humidity;BMP_temperature;BMP_pressure;BME280_temperature;BME280_humidity;BME280_pressure;Samples;Min_cycle;Max_cycle;Signal;HPM_P1;HPM_P2
2023/12/26 00:01:27;;;;;;;6.90;4.00;;;;;;;9.57;100.00;99448.61;110182;1265;22031;-80
2023/12/26 00:04:11;;;;;;;8.30;4.50;;;;;;;9.56;100.00;99448.45;110351;1260;23711;-83
2023/12/26 00:06:59;;;;;;;9.70;4.20;;;;;;;9.55;100.00;99440.88;110705;1260;21972;-82
2023/12/26 00:09:57;;;;;;;7.90;4.80;;;;;;;9.55;100.00;99441.75;110993;1260;22375;-83
2023/12/26 00:12:38;;;;;;;5.80;3.70;;;;;;;9.57;100.00;99441.33;110898;1260;21970;-81
2023/12/26 00:15:32;;;;;;;6.30;4.00;;;;;;;9.58;100.00;99443.19;110891;1253;21973;-83
2023/12/26 00:18:12;;;;;;;6.20;3.50;;;;;;;9.57;100.00;99447.36;110893;1260;22458;-82
2023/12/26 00:20:47;;;;;;;5.70;3.70;;;;;;;9.59;100.00;99450.77;110494;1265;23071;-82
2023/12/26 00:23:38;;;;;;;7.20;4.30;;;;;;;9.56;100.00;99446.91;110590;1257;22025;-83
2023/12/26 00:26:50;;;;;;;6.70;3.70;;;;;;;9.53;100.00;99446.86;109465;1274;22133;-83
2023/12/26 00:29:28;;;;;;;6.00;3.70;;;;;;;9.58;100.00;99452.70;109561;1271;23630;-80
2023/12/26 00:32:21;;;;;;;;;;;;;;;;;;;;;
2023/12/26 00:36:31;;;;;;;;;;;;;;;;;;;;;
2023/12/26 00:39:56;;;;;;;5.30;3.20;;;;;;;9.53;100.00;99448.60;109263;1275;21989;-83
2023/12/26 00:42:41;;;;;;;6.20;3.60;;;;;;;9.51;100.00;99454.09;109116;1275;22038;-84
2023/12/26 00:45:40;;;;;;;13.10;4.00;;;;;;;9.50;100.00;99456.75;110066;1266;22014;-83
2023/12/26 00:51:44;;;;;;;4.50;3.10;;;;;;;9.48;100.00;99449.75;109499;1273;22002;-84
2023/12/26 00:54:46;;;;;;;7.60;3.70;;;;;;;9.51;100.00;99447.52;109503;1273;24426;-84
2023/12/26 00:57:41;;;;;;;6.30;3.60;;;;;;;9.51;100.00;99442.09;109493;1273;22858;-83
2023/12/26 01:00:25;;;;;;;7.10;3.50;;;;;;;9.55;100.00;99443.50;109426;1273;24362;-83
2023/12/26 01:03:10;;;;;;;8.00;4.00;;;;;;;9.55;100.00;99446.11;109078;1276;23660;-84
2023/12/26 01:06:39;;;;;;;6.60;4.60;;;;;;;9.53;100.00;99444.44;109081;1274;23651;-83
2023/12/26 01:09:49;;;;;;;6.10;3.60;;;;;;;9.50;100.00;99437.30;109080;1276;22027;-83
2023/12/26 01:12:29;;;;;;;6.40;4.50;;;;;;;9.47;100.00;99432.02;108485;1283;22211;-82
2023/12/26 01:15:14;;;;;;;6.00;4.20;;;;;;;9.47;100.00;99424.92;108532;1283;22063;-84
2023/12/26 01:17:56;;;;;;;6.80;4.40;;;;;;;9.47;100.00;99414.31;108784;1282;22481;-85
2023/12/26 01:20:44;;;;;;;5.60;4.90;;;;;;;9.48;100.00;99407.84;108849;1278;22016;-83
2023/12/26 01:23:34;;;;;;;7.50;5.20;;;;;;;9.50;100.00;99400.33;108719;1282;22012;-84
2023/12/26 01:26:17;;;;;;;14.60;5.80;;;;;;;9.50;100.00;99406.55;108724;1282;23740;-84
2023/12/26 01:29:25;;;;;;;9.90;5.20;;;;;;;9.49;100.00;99405.71;109014;1274;23043;-84
2023/12/26 01:32:25;;;;;;;6.60;4.60;;;;;;;9.48;100.00;99404.57;109635;1270;22454;-82
2023/12/26 01:35:38;;;;;;;6.10;5.00;;;;;;;9.44;100.00;99403.92;109377;1272;22175;-84
2023/12/26 01:38:24;;;;;;;8.50;4.80;;;;;;;9.43;100.00;99409.33;109150;1274;22111;-85
2023/12/26 01:41:35;;;;;;;5.80;4.20;;;;;;;9.36;100.00;99400.11;109496;1271;22031;-83
2023/12/26 01:44:22;;;;;;;6.20;3.80;;;;;;;9.33;100.00;99395.57;109014;1278;22010;-85
2023/12/26 01:47:25;;;;;;;6.10;3.60;;;;;;;9.36;100.00;99395.09;109007;1278;22264;-84
2023/12/26 01:50:31;;;;;;;7.40;3.30;;;;;;;9.32;100.00;99388.01;109041;1274;21993;-84
2023/12/26 01:53:51;;;;;;;;;;;;;;;;;;;;;
2023/12/26 01:56:54;;;;;;;9.60;6.20;;;;;;;9.30;100.00;99385.83;109500;1271;22261;-83
2023/12/26 01:59:48;;;;;;;8.10;6.60;;;;;;;9.31;100.00;99385.22;109788;1268;23572;-85
2023/12/26 02:06:58;;;;;;;;;;;;;;;;;;;;;
2023/12/26 02:10:17;;;;;;;7.20;3.70;;;;;;;9.34;100.00;99375.71;110123;1266;21997;-86
2023/12/26 02:13:42;;;;;;;;;;;;;;;;;;;;;
2023/12/26 02:16:27;;;;;;;5.00;3.20;;;;;;;9.36;100.00;99368.16;110038;1255;23128;-88
2023/12/26 02:19:07;;;;;;;5.80;3.00;;;;;;;9.34;100.00;99358.89;110008;1266;21947;-85
2023/12/26 02:21:54;;;;;;;4.90;3.00;;;;;;;9.31;100.00;99352.24;110910;1256;22453;-83
2023/12/26 02:24:43;;;;;;;4.40;3.10;;;;;;;9.30;100.00;99350.58;111034;1256;22062;-83
2023/12/26 02:28:01;;;;;;;;;;;;;;;;;;;;;
2023/12/26 02:30:47;;;;;;;7.60;2.80;;;;;;;9.23;100.00;99344.45;111147;1256;23587;-83
2023/12/26 02:33:57;;;;;;;5.00;3.10;;;;;;;9.20;100.00;99338.20;111191;1256;21957;-83
2023/12/26 02:36:49;;;;;;;5.90;2.70;;;;;;;9.20;100.00;99332.49;111288;1256;22066;-81
2023/12/26 02:39:36;;;;;;;5.40;2.90;;;;;;;9.20;100.00;99322.75;110850;1260;23737;-84
2023/12/26 02:42:47;;;;;;;6.80;3.30;;;;;;;9.21;100.00;99318.51;110388;1263;23654;-81
2023/12/26 02:46:36;;;;;;;4.10;2.40;;;;;;;9.24;100.00;99317.71;110410;1263;21992;-82
2023/12/26 02:50:06;;;;;;;5.20;3.00;;;;;;;9.18;100.00;99305.84;108951;1281;22007;-83
2023/12/26 02:52:58;;;;;;;6.10;2.90;;;;;;;9.17;100.00;99307.95;108758;1282;22000;-82
2023/12/26 02:56:14;;;;;;;;;;;;;;;;;;;;;
2023/12/26 02:59:04;;;;;;;4.90;2.30;;;;;;;9.17;100.00;99303.98;108851;1280;22098;-83
2023/12/26 03:01:51;;;;;;;5.80;2.60;;;;;;;9.20;100.00;99297.95;108868;1280;22559;-80
2023/12/26 03:04:48;;;;;;;5.10;2.40;;;;;;;9.22;100.00;99295.41;109001;1280;24329;-81
2023/12/26 03:07:34;;;;;;;5.20;3.00;;;;;;;9.20;100.00;99291.66;109403;1269;21980;-79
2023/12/26 03:10:25;;;;;;;4.40;2.80;;;;;;;9.21;100.00;99287.30;109100;1273;23061;-82
2023/12/26 03:13:14;;;;;;;3.90;2.70;;;;;;;9.19;100.00;99282.18;109428;1274;22002;-82
2023/12/26 03:15:51;;;;;;;5.10;2.80;;;;;;;9.20;100.00;99272.23;109015;1277;23131;-82
2023/12/26 03:18:38;;;;;;;6.80;3.10;;;;;;;9.21;100.00;99275.46;109128;1277;21953;-84
2023/12/26 03:21:32;;;;;;;4.70;3.00;;;;;;;9.21;100.00;99270.27;109146;1275;21988;-84
2023/12/26 03:24:27;;;;;;;4.80;2.80;;;;;;;9.24;100.00;99259.90;109269;1269;23038;-81
2023/12/26 03:27:12;;;;;;;3.20;2.40;;;;;;;9.27;100.00;99251.92;110044;1269;22979;-83
2023/12/26 03:30:29;;;;;;;;;;;;;;;;;;;;;
2023/12/26 03:33:31;;;;;;;2.90;2.20;;;;;;;9.23;100.00;99246.05;110471;1262;22446;-82
2023/12/26 03:36:31;;;;;;;5.10;2.90;;;;;;;9.24;100.00;99243.56;110691;1261;21962;-84
2023/12/26 03:39:35;;;;;;;3.00;2.30;;;;;;;9.26;100.00;99234.98;110842;1256;22436;-85
2023/12/26 03:42:18;;;;;;;5.30;2.60;;;;;;;9.30;100.00;99228.20;110644;1263;21970;-84
2023/12/26 03:45:36;;;;;;;;;;;;;;;;;;;;;
2023/12/26 03:48:23;;;;;;;4.60;2.90;;;;;;;9.28;100.00;99218.73;110410;1263;21970;-83
2023/12/26 03:51:14;;;;;;;6.20;3.20;;;;;;;9.29;100.00;99219.35;109917;1268;23020;-84
2023/12/26 03:54:04;;;;;;;3.40;2.90;;;;;;;9.30;100.00;99213.41;109126;1271;21988;-84
2023/12/26 03:57:14;;;;;;;3.80;2.70;;;;;;;9.30;100.00;99203.84;109253;1275;22752;-82
2023/12/26 04:00:14;;;;;;;3.80;3.10;;;;;;;9.30;100.00;99204.01;108628;1283;22027;-83
2023/12/26 04:03:17;;;;;;;;;;;;;;;;;;;;;
2023/12/26 04:06:09;;;;;;;3.40;2.50;;;;;;;9.40;100.00;99203.73;108235;1286;23839;-81
2023/12/26 04:09:13;;;;;;;10.10;2.70;;;;;;;9.42;100.00;99195.95;108421;1283;23404;-82
2023/12/26 04:12:42;;;;;;;3.50;2.20;;;;;;;9.36;100.00;99184.95;108503;1285;23187;-81
2023/12/26 04:15:45;;;;;;;3.30;2.40;;;;;;;9.36;100.00;99171.95;108585;1285;23762;-80
2023/12/26 04:18:24;;;;;;;3.80;2.60;;;;;;;9.39;100.00;99162.08;108711;1282;24332;-82
2023/12/26 04:21:25;;;;;;;4.10;2.30;;;;;;;9.43;100.00;99160.50;108696;1282;22010;-84
2023/12/26 04:24:18;;;;;;;3.70;2.50;;;;;;;9.46;100.00;99156.48;108947;1276;23715;-83
2023/12/26 04:27:05;;;;;;;3.80;2.50;;;;;;;9.47;100.00;99154.02;109238;1274;22216;-89
2023/12/26 04:30:16;;;;;;;2.90;2.10;;;;;;;9.48;100.00;99150.52;109943;1260;23025;-90
2023/12/26 04:34:40;;;;;;;2.50;1.90;;;;;;;9.49;100.00;99143.67;111781;1256;21969;-91
2023/12/26 04:38:12;;;;;;;2.90;1.90;;;;;;;9.49;100.00;99137.08;111145;1261;21983;-84
2023/12/26 04:40:52;;;;;;;2.60;1.70;;;;;;;9.53;100.00;99128.37;109779;1266;21993;-84
2023/12/26 04:43:47;;;;;;;4.70;2.30;;;;;;;9.53;100.00;99127.48;109950;1267;24308;-82
2023/12/26 04:46:37;;;;;;;4.10;1.80;;;;;;;9.54;100.00;99123.95;110259;1266;22278;-83
2023/12/26 04:49:44;;;;;;;2.80;2.50;;;;;;;9.54;100.00;99121.36;110341;1266;22056;-82
2023/12/26 04:52:25;;;;;;;2.80;2.10;;;;;;;9.52;100.00;99110.17;110313;1266;23846;-83
2023/12/26 04:55:08;;;;;;;4.00;3.40;;;;;;;9.52;100.00;99095.73;110147;1267;22479;-83
2023/12/26 04:57:48;;;;;;;7.10;4.40;;;;;;;9.56;100.00;99092.60;110314;1266;23719;-82
2023/12/26 05:00:30;;;;;;;11.70;8.30;;;;;;;9.53;100.00;99100.73;109916;1268;22349;-82
2023/12/26 05:03:12;;;;;;;12.80;10.60;;;;;;;9.52;100.00;99100.27;109968;1268;21980;-84
2023/12/26 05:05:58;;;;;;;13.20;10.60;;;;;;;9.52;100.00;99103.37;109634;1268;21985;-84
2023/12/26 05:08:52;;;;;;;7.70;5.50;;;;;;;9.51;100.00;99098.09;109768;1269;21953;-84
2023/12/26 05:11:39;;;;;;;6.50;5.80;;;;;;;9.53;100.00;99094.52;109916;1269;24076;-84
2023/12/26 05:15:14;;;;;;;11.30;9.10;;;;;;;9.54;100.00;99095.48;109642;1270;21982;-84
2023/12/26 05:17:54;;;;;;;12.70;10.80;;;;;;;9.58;100.00;99093.34;109290;1266;21985;-82
2023/12/26 05:20:29;;;;;;;16.90;15.30;;;;;;;9.62;100.00;99089.53;109649;1270;22011;-81
2023/12/26 05:23:03;;;;;;;14.40;12.80;;;;;;;9.63;100.00;99088.02;109634;1270;22057;-81
2023/12/26 05:25:40;;;;;;;29.90;23.60;;;;;;;9.65;100.00;99085.88;109655;1269;23122;-83
2023/12/26 05:28:42;;;;;;;16.50;14.80;;;;;;;9.65;100.00;99076.99;110262;1265;21953;-84
2023/12/26 05:31:35;;;;;;;11.10;9.20;;;;;;;9.67;100.00;99077.27;110379;1265;21981;-81
2023/12/26 05:34:28;;;;;;;6.10;5.50;;;;;;;9.67;100.00;99072.17;110553;1265;21974;-83
2023/12/26 05:37:23;;;;;;;6.70;6.10;;;;;;;9.68;100.00;99069.50;110892;1260;22231;-82
2023/12/26 05:40:08;;;;;;;4.30;3.90;;;;;;;9.66;100.00;99064.95;110973;1260;23660;-82
2023/12/26 05:43:08;;;;;;;4.50;3.10;;;;;;;9.65;100.00;99059.64;110903;1260;22229;-84
2023/12/26 05:45:44;;;;;;;5.40;4.00;;;;;;;9.66;100.00;99055.39;110831;1257;21967;-83
2023/12/26 05:48:26;;;;;;;5.00;4.00;;;;;;;9.70;100.00;99055.20;110730;1260;21970;-82
2023/12/26 05:51:09;;;;;;;4.90;3.60;;;;;;;9.69;100.00;99053.83;110770;1260;23648;-82
2023/12/26 05:54:10;;;;;;;16.90;14.40;;;;;;;9.69;100.00;99051.41;110765;1260;21990;-85
2023/12/26 05:57:17;;;;;;;88.50;61.90;;;;;;;9.70;100.00;99049.43;110982;1260;24137;-84
2023/12/26 06:00:16;;;;;;;50.20;43.90;;;;;;;9.74;100.00;99048.00;110771;1260;23040;-82
2023/12/26 06:03:19;;;;;;;16.60;15.00;;;;;;;9.76;100.00;99047.72;109535;1268;21991;-85
2023/12/26 06:06:13;;;;;;;5.70;4.90;;;;;;;9.80;100.00;99040.70;110145;1268;22080;-83
2023/12/26 06:09:31;;;;;;;28.40;24.80;;;;;;;9.82;100.00;99037.48;110208;1268;24538;-83
2023/12/26 06:12:36;;;;;;;;;;;;;;;;;;;;;
2023/12/26 06:15:51;;;;;;;7.80;5.80;;;;;;;9.83;100.00;99035.38;110114;1268;23607;-83
2023/12/26 06:18:35;;;;;;;10.30;7.20;;;;;;;9.83;100.00;99033.95;110083;1268;22119;-83
2023/12/26 06:21:35;;;;;;;4.60;4.20;;;;;;;9.85;100.00;99034.18;110327;1263;21976;-83
2023/12/26 06:24:46;;;;;;;5.00;2.90;;;;;;;9.88;100.00;99038.40;110715;1263;21980;-83
2023/12/26 06:27:50;;;;;;;3.40;3.10;;;;;;;9.87;100.00;99038.61;110505;1263;21986;-85
2023/12/26 06:30:40;;;;;;;3.30;3.00;;;;;;;9.87;100.00;99035.66;110258;1263;21975;-82
2023/12/26 06:33:19;;;;;;;;;;;;;;;9.89;100.00;99033.96;110320;1257;21943;-82
2023/12/26 06:36:04;;;;;;;3.90;3.30;;;;;;;9.85;100.00;99041.16;111064;1257;21986;-81
2023/12/26 06:38:49;;;;;;;5.00;4.10;;;;;;;9.89;100.00;99046.15;111070;1257;21989;-83
2023/12/26 06:41:32;;;;;;;4.30;3.20;;;;;;;9.94;100.00;99045.36;111434;1257;21972;-82
2023/12/26 06:44:19;;;;;;;5.10;3.60;;;;;;;9.96;100.00;99047.12;111133;1257;22999;-81
2023/12/26 06:47:01;;;;;;;6.00;4.10;;;;;;;10.02;100.00;99046.31;111002;1257;23729;-83
2023/12/26 06:49:46;;;;;;;;;;;;;;;10.08;100.00;99047.52;111114;1257;23570;-82
2023/12/26 06:52:52;;;;;;;3.20;2.60;;;;;;;10.04;100.00;99047.58;111124;1257;21965;-82
2023/12/26 06:55:34;;;;;;;2.80;2.40;;;;;;;10.07;100.00;99049.98;111050;1257;21968;-83
2023/12/26 06:58:52;;;;;;;3.30;2.10;;;;;;;10.13;100.00;99051.58;111110;1257;23698;-83
2023/12/26 07:02:11;;;;;;;3.70;2.70;;;;;;;10.16;100.00;99053.70;111152;1257;22129;-82
2023/12/26 07:05:16;;;;;;;6.10;2.80;;;;;;;10.19;100.00;99052.81;110686;1263;23767;-83
2023/12/26 07:08:51;;;;;;;2.60;2.10;;;;;;;10.25;100.00;99055.95;110544;1263;22963;-83
2023/12/26 07:12:07;;;;;;;4.10;2.00;;;;;;;10.28;100.00;99056.63;109692;1269;21993;-82
2023/12/26 07:15:38;;;;;;;;;;;;;;;;;;;;;
2023/12/26 07:19:41;;;;;;;;;;;;;;;;;;;;;
2023/12/26 07:23:48;;;;;;;;;;;;;;;;;;;;;
2023/12/26 07:27:16;;;;;;;;;;;;;;;;;;;;;
2023/12/26 07:30:41;;;;;;;11.00;9.40;;;;;;;10.51;100.00;99070.67;108609;1286;23059;-83
2023/12/26 07:37:47;;;;;;;;;;;;;;;;;;;;;
2023/12/26 07:40:42;;;;;;;5.50;3.50;;;;;;;10.65;100.00;99085.17;108388;1276;22536;-86
2023/12/26 07:44:12;;;;;;;;;;;;;;;;;;;;;
2023/12/26 07:47:54;;;;;;;6.20;4.10;;;;;;;10.77;100.00;99087.08;107873;1290;23065;-83
2023/12/26 07:50:44;;;;;;;7.40;5.50;;;;;;;10.78;100.00;99091.35;108093;1290;22936;-82
2023/12/26 07:54:15;;;;;;;10.90;7.60;;;;;;;10.81;100.00;99095.19;108443;1285;22473;-81
2023/12/26 07:57:26;;;;;;;7.90;7.00;;;;;;;10.83;100.00;99098.90;107967;1292;23778;-83
2023/12/26 08:00:46;;;;;;;2.70;2.30;;;;;;;10.82;100.00;99099.98;107954;1291;23116;-84
2023/12/26 08:03:32;;;;;;;5.90;4.40;;;;;;;10.85;100.00;99098.96;108136;1291;22026;-83
2023/12/26 08:06:39;;;;;;;4.80;3.50;;;;;;;10.86;100.00;99103.61;108398;1289;22406;-81
2023/12/26 08:10:17;;;;;;;5.60;3.90;;;;;;;10.89;100.00;99105.84;108459;1285;23660;-81
2023/12/26 08:13:26;;;;;;;5.30;2.80;;;;;;;10.84;100.00;99094.15;108594;1285;22804;-87
2023/12/26 08:17:00;;;;;;;;;;;;;;;;;;;;;
2023/12/26 08:21:03;;;;;;;;;;;;;;;;;;;;;
2023/12/26 08:25:12;;;;;;;;;;;;;;;;;;;;;
2023/12/26 08:29:03;;;;;;;;;;;;;;;;;;;;;
2023/12/26 08:32:11;;;;;;;2.30;1.70;;;;;;;11.10;100.00;99152.14;107596;1291;23200;-81
2023/12/26 08:35:37;;;;;;;;;;;;;;;;;;;;;
2023/12/26 08:38:31;;;;;;;4.20;2.10;;;;;;;11.23;100.00;99147.21;108357;1287;21986;-82
2023/12/26 08:41:30;;;;;;;2.20;2.00;;;;;;;11.25;100.00;99156.32;108725;1283;22039;-87
2023/12/26 08:45:20;;;;;;;;;;;;;;;;;;;;;
2023/12/26 08:48:27;;;;;;;6.10;4.80;;;;;;;11.30;100.00;99171.52;108662;1287;22617;-84
2023/12/26 08:52:13;;;;;;;6.10;4.70;;;;;;;11.36;100.00;99183.17;108443;1287;22290;-84
2023/12/26 08:55:27;;;;;;;4.30;2.50;;;;;;;11.40;100.00;99184.19;108072;1294;22356;-83
2023/12/26 08:58:11;;;;;;;4.00;3.30;;;;;;;11.40;100.00;99188.70;108188;1290;22088;-84
2023/12/26 09:01:34;;;;;;;3.10;2.80;;;;;;;11.44;100.00;99198.20;108125;1290;23761;-84
2023/12/26 09:04:30;;;;;;;;;;;;;;;;;;;;;
2023/12/26 09:07:59;;;;;;;2.90;2.30;;;;;;;11.50;100.00;99199.27;107986;1292;22501;-83
2023/12/26 09:10:55;;;;;;;3.90;2.30;;;;;;;11.51;100.00;99207.18;108049;1292;22024;-84
2023/12/26 09:14:05;;;;;;;5.30;4.30;;;;;;;11.52;100.00;99213.08;108020;1292;22018;-82
2023/12/26 09:16:46;;;;;;;7.80;3.70;;;;;;;11.53;100.00;99216.48;108143;1287;22027;-80
2023/12/26 09:20:12;;;;;;;4.70;3.80;;;;;;;11.55;100.00;99224.58;108332;1287;23755;-84
2023/12/26 09:23:38;;;;;;;3.30;2.90;;;;;;;11.55;100.00;99230.62;108437;1282;22437;-83
2023/12/26 09:26:48;;;;;;;3.40;2.90;;;;;;;11.51;100.00;99243.80;108780;1282;22003;-85
2023/12/26 09:30:15;;;;;;;;;;;;;;;;;;;;;
2023/12/26 09:33:51;;;;;;;3.60;3.20;;;;;;;11.42;100.00;99267.67;108712;1282;24352;-82
2023/12/26 09:37:59;;;;;;;3.90;2.50;;;;;;;11.31;100.00;99273.69;108560;1282;23062;-85
2023/12/26 09:42:17;;;;;;;;;;;;;;;;;;;;;
2023/12/26 09:46:18;;;;;;;7.20;3.90;;;;;;;11.15;100.00;99298.30;109376;1274;22003;-84
2023/12/26 09:50:05;;;;;;;;;;;;;;;;;;;;;
2023/12/26 09:58:47;;;;;;;;;;;;;;;;;;;;;
2023/12/26 10:02:37;;;;;;;4.10;2.80;;;;;;;10.79;100.00;99314.23;108680;1287;23394;-85
2023/12/26 10:05:43;;;;;;;3.70;2.40;;;;;;;10.73;100.00;99318.01;108165;1291;23749;-84
2023/12/26 10:09:48;;;;;;;;;;;;;;;;;;;;;
2023/12/26 10:13:00;;;;;;;6.30;2.40;;;;;;;10.68;100.00;99320.02;107965;1295;23690;-86
2023/12/26 10:16:29;;;;;;;3.10;2.40;;;;;;;10.68;100.00;99326.34;107744;1295;22418;-84
2023/12/26 10:19:13;;;;;;;4.20;2.70;;;;;;;10.65;100.00;99335.02;107823;1295;22112;-85
2023/12/26 10:22:27;;;;;;;3.10;2.50;;;;;;;10.61;100.00;99337.47;107948;1295;22011;-83
2023/12/26 10:28:00;;;;;;;4.60;3.00;;;;;;;10.58;100.00;99345.83;107317;1299;22027;-84
2023/12/26 10:30:35;;;;;;;4.70;3.20;;;;;;;10.60;100.00;99345.39;107474;1299;23168;-83
2023/12/26 10:33:10;;;;;;;5.70;3.60;;;;;;;10.61;100.00;99354.70;108051;1289;22121;-85
2023/12/26 10:36:06;;;;;;;4.00;3.60;;;;;;;10.62;100.00;99351.55;108579;1286;23056;-84
2023/12/26 10:39:09;;;;;;;;;;;;;;;;;;;;;
2023/12/26 10:45:20;;;;;;;4.70;3.20;;;;;;;10.66;100.00;99339.98;109523;1274;23849;-81
2023/12/26 10:48:22;;;;;;;4.30;3.40;;;;;;;10.65;100.00;99324.57;109456;1274;24324;-82
2023/12/26 10:51:27;;;;;;;4.70;3.70;;;;;;;10.67;100.00;99324.98;109438;1274;23731;-83
2023/12/26 10:54:23;;;;;;;8.30;7.50;;;;;;;10.67;100.00;99321.50;109179;1278;22003;-81
2023/12/26 10:57:10;;;;;;;7.90;6.20;;;;;;;10.74;100.00;99329.65;109209;1278;22988;-83
2023/12/26 11:00:00;;;;;;;5.90;4.60;;;;;;;10.75;100.00;99334.81;109123;1278;23874;-81
2023/12/26 11:03:05;;;;;;;4.70;3.50;;;;;;;10.77;100.00;99336.98;109177;1278;22006;-83
2023/12/26 11:05:55;;;;;;;4.40;3.00;;;;;;;10.80;100.00;99342.86;109091;1276;21997;-84
2023/12/26 11:08:47;;;;;;;4.80;3.50;;;;;;;10.84;100.00;99348.23;109312;1276;22009;-82
2023/12/26 11:11:43;;;;;;;6.80;4.70;;;;;;;10.87;100.00;99358.69;109379;1272;22183;-85
2023/12/26 11:14:56;;;;;;;3.60;2.90;;;;;;;10.88;100.00;99359.16;109501;1272;22005;-84
2023/12/26 11:17:33;;;;;;;4.30;3.60;;;;;;;10.88;100.00;99368.73;109568;1272;22015;-84
2023/12/26 11:20:11;;;;;;;5.20;3.80;;;;;;;10.89;100.00;99371.27;109512;1272;21998;-83
2023/12/26 11:22:59;;;;;;;6.10;4.50;;;;;;;10.90;100.00;99384.66;109247;1272;23732;-82
2023/12/26 11:25:42;;;;;;;5.00;3.60;;;;;;;10.89;100.00;99395.45;109669;1272;23092;-83
2023/12/26 11:28:53;;;;;;;5.50;3.50;;;;;;;10.90;100.00;99410.22;109740;1272;21980;-84
2023/12/26 11:31:46;;;;;;;3.30;2.50;;;;;;;10.89;100.00;99419.84;109588;1272;23731;-84
2023/12/26 11:34:55;;;;;;;4.10;3.20;;;;;;;10.78;100.00;99409.80;109686;1272;23061;-85
2023/12/26 11:37:33;;;;;;;4.80;2.70;;;;;;;10.81;100.00;99408.60;109542;1272;23735;-83
2023/12/26 11:40:14;;;;;;;;;;;;;;;10.83;100.00;99388.67;109714;1269;22018;-84
2023/12/26 11:42:57;;;;;;;5.90;3.00;;;;;;;10.73;100.00;99389.20;110092;1268;21987;-82
2023/12/26 11:45:56;;;;;;;4.40;3.50;;;;;;;10.75;100.00;99409.97;110165;1268;21991;-84
2023/12/26 11:49:02;;;;;;;5.40;2.70;;;;;;;10.69;100.00;99409.98;110131;1262;21983;-85
2023/12/26 11:51:43;;;;;;;4.40;2.80;;;;;;;10.78;100.00;99406.35;110365;1268;23004;-84
2023/12/26 11:54:44;;;;;;;4.70;3.50;;;;;;;10.79;100.00;99416.05;110369;1265;22980;-87
2023/12/26 11:57:34;;;;;;;4.40;3.60;;;;;;;10.81;100.00;99420.27;110480;1265;24414;-82
2023/12/26 12:00:35;;;;;;;7.60;3.80;;;;;;;10.85;100.00;99422.88;110621;1265;22632;-83
2023/12/26 12:03:28;;;;;;;4.00;2.60;;;;;;;10.85;100.00;99429.61;110758;1264;21968;-83
2023/12/26 12:06:27;;;;;;;3.80;2.30;;;;;;;10.86;100.00;99438.45;110562;1265;21983;-83
2023/12/26 12:09:21;;;;;;;5.00;2.80;;;;;;;10.89;100.00;99444.21;109781;1270;22018;-84
2023/12/26 12:15:16;;;;;;;8.50;4.20;;;;;;;10.95;100.00;99450.36;110048;1270;21952;-84
2023/12/26 12:18:14;;;;;;;5.70;4.50;;;;;;;10.90;100.00;99445.73;109827;1270;23566;-84
2023/12/26 12:21:16;;;;;;;7.30;5.20;;;;;;;10.90;100.00;99447.46;109315;1275;23709;-86
2023/12/26 12:24:32;;;;;;;7.40;3.80;;;;;;;10.96;100.00;99464.73;109350;1277;21992;-86
2023/12/26 12:28:01;;;;;;;3.70;3.00;;;;;;;10.92;100.00;99459.71;109030;1279;22432;-83
2023/12/26 12:31:46;;;;;;;4.30;2.80;;;;;;;10.83;100.00;99459.84;109137;1279;23608;-84
2023/12/26 12:35:54;;;;;;;3.70;2.80;;;;;;;10.78;100.00;99463.08;109143;1279;21996;-85
2023/12/26 12:39:27;;;;;;;4.10;3.20;;;;;;;10.68;100.00;99463.27;109228;1275;22020;-83
2023/12/26 12:42:19;;;;;;;7.40;4.00;;;;;;;10.63;100.00;99465.77;109579;1270;22240;-83
2023/12/26 12:45:20;;;;;;;6.10;4.10;;;;;;;10.66;100.00;99469.46;109873;1270;21961;-82
2023/12/26 12:48:27;;;;;;;4.00;2.90;;;;;;;10.69;100.00;99475.02;109784;1271;23769;-84
2023/12/26 12:51:35;;;;;;;5.20;3.30;;;;;;;10.69;100.00;99476.40;109701;1271;22061;-83
2023/12/26 12:55:15;;;;;;;6.00;2.90;;;;;;;10.69;100.00;99488.93;109755;1271;21995;-84
2023/12/26 12:58:32;;;;;;;5.60;3.10;;;;;;;10.66;100.00;99486.66;109540;1271;21983;-84
2023/12/26 13:01:57;;;;;;;;;;;;;;;10.63;100.00;99491.50;109284;1275;21967;-87
2023/12/26 13:05:39;;;;;;;;;;;;;;;;;;;;;
2023/12/26 13:08:36;;;;;;;4.70;2.50;;;;;;;10.44;100.00;99505.01;108855;1284;21984;-82
2023/12/26 13:11:49;;;;;;;4.90;2.80;;;;;;;10.46;100.00;99507.70;108499;1291;22977;-82
2023/12/26 13:15:41;;;;;;;6.00;2.80;;;;;;;10.45;100.00;99513.13;108198;1295;23040;-82
2023/12/26 13:19:01;;;;;;;5.00;2.60;;;;;;;10.46;100.00;99521.98;107885;1295;22094;-81
2023/12/26 13:21:52;;;;;;;4.50;2.80;;;;;;;10.45;100.00;99524.77;108171;1295;22009;-82
2023/12/26 13:24:27;;;;;;;4.80;2.50;;;;;;;10.48;100.00;99531.57;108205;1295;23004;-83
2023/12/26 13:26:58;;;;;;;4.90;3.00;;;;;;;10.50;100.00;99534.98;108085;1291;22052;-84
2023/12/26 13:29:37;;;;;;;3.90;3.00;;;;;;;10.51;100.00;99533.52;108392;1290;21992;-85
2023/12/26 13:32:24;;;;;;;5.10;2.40;;;;;;;10.53;100.00;99537.94;108619;1286;23735;-83
2023/12/26 13:35:11;;;;;;;4.20;2.30;;;;;;;10.52;100.00;99528.59;108880;1280;22035;-81
2023/12/26 13:38:21;;;;;;;3.70;2.20;;;;;;;10.50;100.00;99530.61;109285;1280;23084;-83
2023/12/26 13:41:56;;;;;;;5.80;3.10;;;;;;;10.46;100.00;99538.15;109045;1276;23800;-86
2023/12/26 13:45:49;;;;;;;6.50;4.60;;;;;;;10.28;100.00;99535.91;108628;1290;23082;-85
2023/12/26 13:48:58;;;;;;;5.70;2.10;;;;;;;10.19;100.00;99545.20;108588;1286;22024;-84
2023/12/26 13:52:09;;;;;;;3.90;2.00;;;;;;;10.17;100.00;99561.77;108763;1285;22009;-83
2023/12/26 13:55:18;;;;;;;4.60;2.80;;;;;;;10.16;100.00;99559.05;108644;1286;22063;-83
2023/12/26 13:58:02;;;;;;;7.70;3.70;;;;;;;10.15;100.00;99565.20;108802;1286;22470;-82
2023/12/26 14:01:25;;;;;;;7.20;3.60;;;;;;;10.12;100.00;99568.48;109218;1277;22555;-80
2023/12/26 14:04:30;;;;;;;3.80;2.30;;;;;;;10.09;100.00;99573.83;109537;1274;21993;-84
2023/12/26 14:07:57;;;;;;;4.50;2.40;;;;;;;9.97;100.00;99569.38;109274;1278;22083;-81
2023/12/26 14:10:45;;;;;;;7.90;3.80;;;;;;;10.02;100.00;99586.86;109115;1278;22009;-83
2023/12/26 14:13:51;;;;;;;4.00;2.70;;;;;;;9.99;100.00;99587.86;109028;1281;23094;-84
2023/12/26 14:17:06;;;;;;;3.30;2.20;;;;;;;9.97;100.00;99590.20;108716;1286;23754;-84
2023/12/26 14:20:43;;;;;;;5.40;3.50;;;;;;;9.95;100.00;99593.77;108530;1289;22014;-83
2023/12/26 14:27:05;;;;;;;4.20;2.60;;;;;;;9.91;100.00;99603.70;108481;1286;22006;-85
2023/12/26 14:29:37;;;;;;;3.20;2.10;;;;;;;9.91;100.00;99610.64;108574;1286;22321;-84
2023/12/26 14:32:40;;;;;;;5.80;2.70;;;;;;;9.89;100.00;99607.78;108645;1286;23062;-84
2023/12/26 14:39:21;;;;;;;5.60;2.20;;;;;;;9.82;100.00;99622.20;108890;1281;23004;-85
2023/12/26 14:42:52;;;;;;;4.30;2.20;;;;;;;9.77;100.00;99623.80;108780;1286;22034;-86
2023/12/26 14:46:15;;;;;;;5.90;2.00;;;;;;;9.73;100.00;99627.84;108598;1286;268899;-82
2023/12/26 14:50:37;;;;;;;;;;;;;;;;;;;;;
2023/12/26 14:54:13;;;;;;;;;;;;;;;;;;;;;
2023/12/26 14:57:31;;;;;;;9.80;5.30;;;;;;;9.66;100.00;99637.38;110658;1260;21982;-84
2023/12/26 15:00:53;;;;;;;;;;;;;;;;;;;;;
2023/12/26 15:05:11;;;;;;;7.20;4.10;;;;;;;9.53;100.00;99643.13;103116;1264;10165717;-85
2023/12/26 15:13:43;;;;;;;6.50;3.20;;;;;;;9.46;100.00;99662.22;108860;1284;22364;-83
2023/12/26 15:17:27;;;;;;;6.00;2.90;;;;;;;9.46;100.00;99671.96;108245;1293;22030;-85
2023/12/26 15:20:26;;;;;;;6.00;3.50;;;;;;;9.45;100.00;99679.27;107880;1296;24416;-81
2023/12/26 15:23:44;;;;;;;7.60;1.90;;;;;;;9.44;100.00;99686.27;107847;1296;22036;-85
2023/12/26 15:26:48;;;;;;;7.40;2.50;;;;;;;9.42;100.00;99693.16;107108;1301;22516;-82
2023/12/26 15:29:57;;;;;;;5.50;2.30;;;;;;;9.39;100.00;99698.66;107128;1301;23030;-84
2023/12/26 15:33:05;;;;;;;6.50;2.80;;;;;;;9.39;100.00;99697.77;106934;1301;22349;-83
2023/12/26 15:36:21;;;;;;;5.30;3.00;;;;;;;9.38;100.00;99701.29;106125;1311;22057;-82
2023/12/26 15:39:59;;;;;;;5.70;2.90;;;;;;;9.31;100.00;99715.65;106126;1311;22019;-82
2023/12/26 15:53:42;;;;;;;6.70;3.00;;;;;;;10.49;100.00;99722.05;108542;1280;548436;-83
2023/12/26 15:56:33;;;;;;;7.00;3.00;;;;;;;10.52;100.00;99733.34;108130;1265;2520437;-82
2023/12/26 15:59:42;;;;;;;7.30;3.10;;;;;;;10.06;100.00;99739.29;110142;1265;22002;-85
2023/12/26 16:02:22;;;;;;;12.10;4.40;;;;;;;9.79;100.00;99741.90;109902;1269;23767;-83